Accueil
METAR-TAF:

METAR-TAF

Aéroports :

Aéroport Le Mans-Arnage

Le Mans, France

latitude: 47-56N, longitude: 000-12E, altitude: 59 m

Observation

Le bulletin a été fait il y a 32 minutes, à 11:30 UTC
Vent 3 kt de direction variable
Température 13°C
Humidité 62%
Pression 1027 hPa
Visibilité 10 km ou plus
pas de nuages en-dessous de 1500 mètres et pas de cumulonimbus.

METAR: LFRM 161130Z AUTO VRB03KT CAVOK 13/06 Q1027 NOSIG

Heure: 13:02 (12:02 UTC)

Prévision

Le bulletin a été fait il y a 1 heure et 2 minutes, à 11:00 UTC
Prévision valable du 16 à 12 UTC au 17 à 12 UTC
Vent 5 kt de est/sud-est
Visibilité 10 km ou plus
pas de nuages en-dessous de 1500 mètres et pas de cumulonimbus.
Probabilité 30%
du 16 à 21 UTC au 17 à 03 UTC
Visibilité: 4000 m
brume
Evoluant progressivement
du 17 à 09 UTC au 17 à 12 UTC
Vent 10 kt de sud

TAF: LFRM 161100Z 1612/1712 12005KT CAVOK PROB30 1621/1703 4000 BR BECMG 1709/1712 19010KT

Observations et prévisions météorologiques de plus de 4000 aéroports (messages METAR et TAF).

Les stations disponibles sont représentées par des disques jaunes et rouges sur la carte.

Passer la souris dessus pour voir le nom de la station.

Cliquer dessus pour voir les observations et prévisions météorologiques.

Pour changer de carte: cliquez sur les boutons verts avec une croix noire pour zoomer, sur le bouton vert avec un tiret pour effectuer un zoom arrière, ou sur les flèches vertes pour les cartes adjacentes.


METAR-TAF: